עמוד ראשי
METAR-TAF:

METAR-TAF

שדות תעופה :

Nioro du Sahel, מאלי

קו רוחב: 15-14N, קו אורך: 009-21W, גובה: 235מטר

תצפית מזג אוויר נוכחית

הדו"ח נערך לפני 1 שעות ו 24דקות, בשעה 00:00 UTC
רוח 18קשר מכיוון דרום
טמפרטורת 35 צלסיוס
לחות 42%
לחץ 1010 hPa
ראות: 6000מטר
חול נושב,

METAR: GANR 130000Z 18018KT 6000 BLSA NSC 35/20 Q1010

זמן: 01:24 (01:24 UTC)


TAF: חסר

תצפיות ותחזיות מזג אוויר לגבי יותר מ- 4,000 שדות תעופה ברחבי העולם. דוחות METAR ו- TAF.

התחנות הזמינות מסומנות בנקודות צהובות ואדומות על גבי המפה.

העבר את העכבר לנקודה הצבעונית על מנת לראות את שם התחנה.

לאחר מכן, לחץ כדי לראות את תוכן ואת תחזיות מזג האוויר.

כדי לשנות את המפה: לחץ על הכפתורים הירוקים עם הפלוס השחור כדי להתקרב; על הכפתור הירוק עם המקף כדי להתרחק; או בחיצים הירוקים למפות סמוכות.


METAR-TAF: